Muncy Creek, Pennsylvania
Current Conditions -  °F | °C
As of 8:54 AM on Saturday 22 Nov 2014 (Local Time) from KIPT Reporting Station
Scattered Clouds Scattered Clouds  
Wind Chill: 19°   Ceiling: Unl
Heat Index: 19°   Visibility: 10mi
Dew Point: 11°   Wind: 3mph
Humidity: 71%   Direction: 70°ENE
Pressure: 30.42"   Gusts: NA
Location:  41.225°N, 76.7388°W
Report Text: KIPT 221354Z 07003KT 10SM SCT250 M07/M12 A3042 RMK AO2 SLP311 T10721117
Loading
Personal Weather Stations






























Interactive Weather Map New forecast layout! Learn more

10-Day Weather Forecast

Advertisements
Track Severe Weather on mobile